9HVFE LTAI-LTFM
Flight info
| Callsign | 9HVFE |
|---|---|
| Flight time | 1h 6m |
| Altitude | 40000 |
| Route | EKSEN1K/18L EKSEN UM855 SISPI |
| Aircraft | CL60/M-SBDE1E2E3FGHIJ1J4J5J7M3RWXYZ/LB1V1D1 |
Departure
| Time | 2026-05-05 15:40 |
|---|---|
| Airport | Antalya International Airport (LTAI) |
Arrival
| Time | 2026-05-05 16:46 |
|---|---|
| Airport | İstanbul Airport (LTFM) |
| Time | Latitude | Longitude | Altitude | Speed | Heading |
|---|---|---|---|---|---|
| 2026-05-05 14:41 | 36.88242 | 30.79564 | 175 ft | 0 kts | 187° |
| 2026-05-05 15:29 | 36.88237 | 30.79563 | 175 ft | 2 kts | 187° |
| 2026-05-05 15:29 | 36.88218 | 30.79563 | 174 ft | 3 kts | 156° |
| 2026-05-05 15:29 | 36.88206 | 30.79609 | 174 ft | 7 kts | 96° |
| 2026-05-05 15:29 | 36.88230 | 30.79641 | 174 ft | 7 kts | 2° |
| 2026-05-05 15:30 | 36.88288 | 30.79650 | 175 ft | 9 kts | 6° |
| 2026-05-05 15:30 | 36.88352 | 30.79650 | 176 ft | 8 kts | 343° |
| 2026-05-05 15:30 | 36.88408 | 30.79646 | 177 ft | 9 kts | 6° |
| 2026-05-05 15:30 | 36.88482 | 30.79656 | 179 ft | 11 kts | 6° |
| 2026-05-05 15:31 | 36.88575 | 30.79667 | 178 ft | 15 kts | 6° |
| 2026-05-05 15:31 | 36.88691 | 30.79682 | 178 ft | 14 kts | 6° |
| 2026-05-05 15:31 | 36.88778 | 30.79695 | 178 ft | 12 kts | 7° |
| 2026-05-05 15:31 | 36.88858 | 30.79712 | 178 ft | 9 kts | 34° |
| 2026-05-05 15:32 | 36.88868 | 30.79792 | 178 ft | 11 kts | 97° |
| 2026-05-05 15:32 | 36.88859 | 30.79899 | 179 ft | 13 kts | 94° |
| 2026-05-05 15:32 | 36.88849 | 30.80022 | 179 ft | 13 kts | 95° |
| 2026-05-05 15:32 | 36.88838 | 30.80152 | 176 ft | 17 kts | 96° |
| 2026-05-05 15:33 | 36.88826 | 30.80299 | 178 ft | 14 kts | 95° |
| 2026-05-05 15:33 | 36.88814 | 30.80434 | 176 ft | 16 kts | 96° |
| 2026-05-05 15:33 | 36.88810 | 30.80552 | 172 ft | 13 kts | 71° |
| 2026-05-05 15:33 | 36.88884 | 30.80594 | 172 ft | 12 kts | 7° |
| 2026-05-05 15:34 | 36.88984 | 30.80608 | 173 ft | 15 kts | 6° |
| 2026-05-05 15:34 | 36.89106 | 30.80625 | 173 ft | 19 kts | 6° |
| 2026-05-05 15:34 | 36.89244 | 30.80644 | 174 ft | 19 kts | 6° |
| 2026-05-05 15:34 | 36.89381 | 30.80662 | 174 ft | 21 kts | 7° |
| 2026-05-05 15:35 | 36.89537 | 30.80684 | 174 ft | 22 kts | 5° |
| 2026-05-05 15:35 | 36.89672 | 30.80703 | 173 ft | 19 kts | 7° |
| 2026-05-05 15:35 | 36.89820 | 30.80723 | 174 ft | 22 kts | 6° |
| 2026-05-05 15:35 | 36.89977 | 30.80745 | 174 ft | 21 kts | 6° |
| 2026-05-05 15:36 | 36.90126 | 30.80766 | 175 ft | 22 kts | 6° |
| 2026-05-05 15:36 | 36.90284 | 30.80787 | 177 ft | 20 kts | 6° |
| 2026-05-05 15:36 | 36.90429 | 30.80807 | 178 ft | 19 kts | 6° |
| 2026-05-05 15:36 | 36.90557 | 30.80825 | 179 ft | 19 kts | 6° |
| 2026-05-05 15:37 | 36.90661 | 30.80839 | 180 ft | 11 kts | 7° |
| 2026-05-05 15:37 | 36.90705 | 30.80871 | 180 ft | 6 kts | 69° |
| 2026-05-05 15:37 | 36.90686 | 30.80923 | 180 ft | 6 kts | 153° |
| 2026-05-05 15:37 | 36.90655 | 30.80942 | 180 ft | 5 kts | 154° |
| 2026-05-05 15:38 | 36.90622 | 30.80963 | 179 ft | 5 kts | 154° |
| 2026-05-05 15:38 | 36.90579 | 30.80988 | 179 ft | 9 kts | 156° |
| 2026-05-05 15:38 | 36.90535 | 30.81013 | 179 ft | 0 kts | 156° |
| 2026-05-05 15:39 | 36.90502 | 30.81033 | 178 ft | 8 kts | 158° |
| 2026-05-05 15:39 | 36.90370 | 30.81033 | 177 ft | 45 kts | 186° |
| 2026-05-05 15:39 | 36.89697 | 30.80942 | 181 ft | 142 kts | 186° |
| 2026-05-05 15:39 | 36.88583 | 30.80784 | 748 ft | 178 kts | 187° |
| 2026-05-05 15:40 | 36.87241 | 30.80775 | 1437 ft | 214 kts | 173° |
| 2026-05-05 15:40 | 36.85715 | 30.81059 | 2113 ft | 227 kts | 172° |
| 2026-05-05 15:40 | 36.84155 | 30.81358 | 2805 ft | 228 kts | 172° |
| 2026-05-05 15:40 | 36.82587 | 30.81653 | 3479 ft | 229 kts | 172° |
| 2026-05-05 15:41 | 36.81010 | 30.81947 | 4151 ft | 232 kts | 172° |
| 2026-05-05 15:41 | 36.79430 | 30.82386 | 4825 ft | 235 kts | 157° |
| 2026-05-05 15:41 | 36.77896 | 30.83303 | 5580 ft | 261 kts | 153° |
| 2026-05-05 15:41 | 36.76231 | 30.84346 | 6525 ft | 278 kts | 150° |
| 2026-05-05 15:42 | 36.74705 | 30.85838 | 7552 ft | 285 kts | 128° |
| 2026-05-05 15:42 | 36.73788 | 30.88012 | 8603 ft | 289 kts | 102° |
| 2026-05-05 15:42 | 36.73523 | 30.90470 | 9692 ft | 294 kts | 94° |
| 2026-05-05 15:42 | 36.73328 | 30.93019 | 10513 ft | 302 kts | 94° |
| 2026-05-05 15:43 | 36.73120 | 30.95623 | 10870 ft | 304 kts | 95° |
| 2026-05-05 15:43 | 36.72908 | 30.98262 | 10993 ft | 304 kts | 95° |
| 2026-05-05 15:43 | 36.72700 | 31.00849 | 10991 ft | 303 kts | 94° |
| 2026-05-05 15:43 | 36.72483 | 31.03567 | 11402 ft | 328 kts | 94° |
| 2026-05-05 15:44 | 36.72546 | 31.06376 | 12487 ft | 324 kts | 77° |
| 2026-05-05 15:44 | 36.73315 | 31.08925 | 13487 ft | 315 kts | 57° |
| 2026-05-05 15:44 | 36.74703 | 31.10970 | 14453 ft | 312 kts | 37° |
| 2026-05-05 15:44 | 36.76514 | 31.12309 | 15391 ft | 309 kts | 18° |
| 2026-05-05 15:45 | 36.78595 | 31.12881 | 16371 ft | 309 kts | 4° |
| 2026-05-05 15:45 | 36.80723 | 31.13173 | 17389 ft | 311 kts | 4° |
| 2026-05-05 15:45 | 36.82861 | 31.13471 | 18402 ft | 313 kts | 3° |
| 2026-05-05 15:45 | 36.85000 | 31.13404 | 19444 ft | 309 kts | 345° |
| 2026-05-05 15:46 | 36.86966 | 31.12407 | 20482 ft | 306 kts | 325° |
| 2026-05-05 15:46 | 36.88627 | 31.10848 | 21530 ft | 304 kts | 321° |
| 2026-05-05 15:46 | 36.90295 | 31.09224 | 22602 ft | 302 kts | 321° |
| 2026-05-05 15:46 | 36.91933 | 31.07634 | 23655 ft | 300 kts | 320° |
| 2026-05-05 15:47 | 36.93551 | 31.06062 | 24702 ft | 298 kts | 320° |
| 2026-05-05 15:47 | 36.94630 | 31.05013 | 25390 ft | 296 kts | 320° |
| 2026-05-05 15:47 | 36.96756 | 31.02944 | 26712 ft | 292 kts | 320° |
| 2026-05-05 15:47 | 36.98354 | 31.01386 | 27485 ft | 295 kts | 319° |
| 2026-05-05 15:48 | 36.99977 | 30.99803 | 28204 ft | 298 kts | 319° |
| 2026-05-05 15:48 | 37.01631 | 30.98188 | 28892 ft | 302 kts | 319° |
| 2026-05-05 15:48 | 37.03294 | 30.96565 | 29585 ft | 304 kts | 319° |
| 2026-05-05 15:48 | 37.04947 | 30.94949 | 30277 ft | 305 kts | 319° |
| 2026-05-05 15:49 | 37.06646 | 30.93288 | 30921 ft | 306 kts | 319° |
| 2026-05-05 15:49 | 37.08333 | 30.91637 | 31520 ft | 306 kts | 320° |
| 2026-05-05 15:49 | 37.09995 | 30.90010 | 32090 ft | 306 kts | 320° |
| 2026-05-05 15:49 | 37.11686 | 30.88354 | 32654 ft | 304 kts | 320° |
| 2026-05-05 15:50 | 37.13335 | 30.86738 | 33052 ft | 304 kts | 320° |
| 2026-05-05 15:50 | 37.15017 | 30.85087 | 33357 ft | 307 kts | 320° |
| 2026-05-05 15:50 | 37.16702 | 30.83431 | 33620 ft | 310 kts | 320° |
| 2026-05-05 15:50 | 37.18409 | 30.81753 | 33825 ft | 315 kts | 320° |
| 2026-05-05 15:51 | 37.20169 | 30.80022 | 34043 ft | 319 kts | 320° |
| 2026-05-05 15:51 | 37.21921 | 30.78297 | 34244 ft | 324 kts | 320° |
| 2026-05-05 15:51 | 37.23711 | 30.76535 | 34436 ft | 327 kts | 321° |
| 2026-05-05 15:51 | 37.25522 | 30.74776 | 34636 ft | 330 kts | 323° |
| 2026-05-05 15:52 | 37.27484 | 30.73292 | 34836 ft | 334 kts | 332° |
| 2026-05-05 15:52 | 37.29655 | 30.72247 | 35042 ft | 339 kts | 341° |
| 2026-05-05 15:52 | 37.31983 | 30.71659 | 35232 ft | 343 kts | 348° |
| 2026-05-05 15:52 | 37.34352 | 30.71228 | 35429 ft | 343 kts | 348° |
| 2026-05-05 15:53 | 37.36733 | 30.70790 | 35637 ft | 344 kts | 348° |
| 2026-05-05 15:53 | 37.39080 | 30.70357 | 35834 ft | 344 kts | 348° |
| 2026-05-05 15:53 | 37.41479 | 30.70051 | 36061 ft | 346 kts | 353° |
| 2026-05-05 15:53 | 37.43887 | 30.69897 | 36270 ft | 347 kts | 353° |
| 2026-05-05 15:54 | 37.46294 | 30.69742 | 36464 ft | 349 kts | 353° |
| 2026-05-05 15:54 | 37.48714 | 30.69584 | 36666 ft | 349 kts | 353° |
| 2026-05-05 15:54 | 37.51146 | 30.69424 | 36871 ft | 350 kts | 353° |
| 2026-05-05 15:54 | 37.53581 | 30.69264 | 37078 ft | 350 kts | 353° |
| 2026-05-05 15:55 | 37.56014 | 30.69103 | 37286 ft | 350 kts | 353° |
| 2026-05-05 15:55 | 37.58430 | 30.68946 | 37486 ft | 350 kts | 353° |
| 2026-05-05 15:55 | 37.60849 | 30.68797 | 37690 ft | 350 kts | 354° |
| 2026-05-05 15:55 | 37.63282 | 30.68648 | 37886 ft | 349 kts | 354° |
| 2026-05-05 15:56 | 37.65722 | 30.68497 | 38084 ft | 349 kts | 353° |
| 2026-05-05 15:56 | 37.68117 | 30.68349 | 38272 ft | 348 kts | 354° |
| 2026-05-05 15:56 | 37.70535 | 30.68200 | 38465 ft | 347 kts | 354° |
| 2026-05-05 15:56 | 37.72966 | 30.68049 | 38672 ft | 346 kts | 354° |
| 2026-05-05 15:57 | 37.75341 | 30.67901 | 38852 ft | 345 kts | 354° |
| 2026-05-05 15:57 | 37.77723 | 30.67753 | 39042 ft | 343 kts | 354° |
| 2026-05-05 15:57 | 37.80099 | 30.67605 | 39245 ft | 341 kts | 354° |
| 2026-05-05 15:57 | 37.82470 | 30.67457 | 39447 ft | 339 kts | 354° |
| 2026-05-05 15:58 | 37.84798 | 30.67311 | 39660 ft | 336 kts | 354° |
| 2026-05-05 15:58 | 37.87127 | 30.67166 | 39899 ft | 331 kts | 354° |
| 2026-05-05 15:58 | 37.89406 | 30.66998 | 39996 ft | 331 kts | 351° |
| 2026-05-05 15:59 | 37.94049 | 30.66334 | 40015 ft | 337 kts | 351° |
| 2026-05-05 15:59 | 37.98736 | 30.65653 | 40011 ft | 343 kts | 351° |
| 2026-05-05 16:00 | 38.03529 | 30.65021 | 40016 ft | 349 kts | 351° |
| 2026-05-05 16:00 | 38.08423 | 30.64379 | 40024 ft | 355 kts | 351° |
| 2026-05-05 16:01 | 38.13358 | 30.63730 | 40022 ft | 361 kts | 351° |
| 2026-05-05 16:01 | 38.18382 | 30.63070 | 40026 ft | 366 kts | 351° |
| 2026-05-05 16:02 | 38.23460 | 30.62402 | 40032 ft | 371 kts | 352° |
| 2026-05-05 16:02 | 38.28649 | 30.61718 | 40024 ft | 376 kts | 352° |
| 2026-05-05 16:03 | 38.33881 | 30.61014 | 40028 ft | 380 kts | 352° |
| 2026-05-05 16:03 | 38.39137 | 30.60306 | 40028 ft | 384 kts | 352° |
| 2026-05-05 16:04 | 38.44477 | 30.59585 | 40025 ft | 388 kts | 352° |
| 2026-05-05 16:04 | 38.49851 | 30.58859 | 40024 ft | 391 kts | 352° |
| 2026-05-05 16:05 | 38.55298 | 30.58122 | 40026 ft | 394 kts | 352° |
| 2026-05-05 16:05 | 38.60776 | 30.57380 | 40020 ft | 397 kts | 352° |
| 2026-05-05 16:06 | 38.66327 | 30.56626 | 40023 ft | 399 kts | 352° |
| 2026-05-05 16:06 | 38.71884 | 30.55870 | 40017 ft | 402 kts | 352° |
| 2026-05-05 16:07 | 38.77433 | 30.55103 | 40016 ft | 403 kts | 350° |
| 2026-05-05 16:07 | 38.82813 | 30.53146 | 40021 ft | 401 kts | 334° |
| 2026-05-05 16:08 | 38.87830 | 30.49971 | 40021 ft | 403 kts | 333° |
| 2026-05-05 16:08 | 38.92850 | 30.46770 | 40021 ft | 405 kts | 333° |
| 2026-05-05 16:09 | 38.97893 | 30.43547 | 40026 ft | 406 kts | 333° |
| 2026-05-05 16:09 | 39.02934 | 30.40318 | 40026 ft | 407 kts | 333° |
| 2026-05-05 16:10 | 39.08029 | 30.37048 | 40022 ft | 408 kts | 333° |
| 2026-05-05 16:10 | 39.13110 | 30.33781 | 40025 ft | 410 kts | 332° |
| 2026-05-05 16:11 | 39.18224 | 30.30487 | 40025 ft | 411 kts | 333° |
| 2026-05-05 16:12 | 39.28452 | 30.23880 | 40018 ft | 414 kts | 332° |
| 2026-05-05 16:13 | 39.41204 | 30.15612 | 38947 ft | 398 kts | 333° |
| 2026-05-05 16:13 | 39.43640 | 30.14028 | 38602 ft | 392 kts | 333° |
| 2026-05-05 16:13 | 39.46092 | 30.12447 | 38240 ft | 386 kts | 334° |
| 2026-05-05 16:14 | 39.50923 | 30.09724 | 37512 ft | 379 kts | 336° |
| 2026-05-05 16:14 | 39.55802 | 30.07017 | 36798 ft | 382 kts | 336° |
| 2026-05-05 16:15 | 39.60678 | 30.04304 | 36162 ft | 384 kts | 336° |
| 2026-05-05 16:15 | 39.65583 | 30.01569 | 35664 ft | 385 kts | 336° |
| 2026-05-05 16:16 | 39.70531 | 29.98806 | 35175 ft | 386 kts | 336° |
| 2026-05-05 16:16 | 39.75473 | 29.96040 | 34716 ft | 388 kts | 336° |
| 2026-05-05 16:17 | 39.80426 | 29.93261 | 34262 ft | 389 kts | 336° |
| 2026-05-05 16:17 | 39.82922 | 29.91859 | 34017 ft | 390 kts | 336° |
| 2026-05-05 16:18 | 39.87912 | 29.89052 | 33542 ft | 391 kts | 337° |
| 2026-05-05 16:18 | 39.90462 | 29.87853 | 33303 ft | 391 kts | 344° |
| 2026-05-05 16:18 | 39.95828 | 29.86989 | 32824 ft | 390 kts | 359° |
| 2026-05-05 16:19 | 39.98544 | 29.86993 | 32595 ft | 389 kts | 359° |
| 2026-05-05 16:19 | 40.01253 | 29.86993 | 32359 ft | 388 kts | 359° |
| 2026-05-05 16:19 | 40.06606 | 29.86991 | 31888 ft | 385 kts | 359° |
| 2026-05-05 16:20 | 40.11964 | 29.86987 | 31425 ft | 382 kts | 360° |
| 2026-05-05 16:20 | 40.17241 | 29.86982 | 30964 ft | 379 kts | 360° |
| 2026-05-05 16:21 | 40.22501 | 29.86976 | 30450 ft | 378 kts | 0° |
| 2026-05-05 16:22 | 40.30322 | 29.86544 | 28968 ft | 372 kts | 345° |
| 2026-05-05 16:22 | 40.35263 | 29.84609 | 27949 ft | 366 kts | 344° |
| 2026-05-05 16:23 | 40.40080 | 29.82726 | 26915 ft | 361 kts | 344° |
| 2026-05-05 16:23 | 40.42464 | 29.81793 | 26370 ft | 360 kts | 344° |
| 2026-05-05 16:23 | 40.47245 | 29.79921 | 25258 ft | 356 kts | 344° |
| 2026-05-05 16:24 | 40.49601 | 29.78999 | 24710 ft | 355 kts | 344° |
| 2026-05-05 16:24 | 40.51959 | 29.78075 | 24159 ft | 353 kts | 344° |
| 2026-05-05 16:24 | 40.56612 | 29.76251 | 23070 ft | 349 kts | 344° |
| 2026-05-05 16:25 | 40.58947 | 29.75335 | 22521 ft | 346 kts | 344° |
| 2026-05-05 16:25 | 40.63483 | 29.73554 | 21424 ft | 341 kts | 344° |
| 2026-05-05 16:25 | 40.65763 | 29.72658 | 20867 ft | 338 kts | 344° |
| 2026-05-05 16:26 | 40.70208 | 29.70909 | 19774 ft | 333 kts | 344° |
| 2026-05-05 16:26 | 40.74631 | 29.69167 | 18688 ft | 329 kts | 344° |
| 2026-05-05 16:27 | 40.76790 | 29.68316 | 18125 ft | 327 kts | 344° |
| 2026-05-05 16:27 | 40.78959 | 29.67461 | 17349 ft | 324 kts | 344° |
| 2026-05-05 16:27 | 40.81087 | 29.66621 | 16615 ft | 320 kts | 344° |
| 2026-05-05 16:27 | 40.83197 | 29.65707 | 15858 ft | 317 kts | 337° |
| 2026-05-05 16:28 | 40.85028 | 29.64171 | 15124 ft | 316 kts | 320° |
| 2026-05-05 16:28 | 40.86395 | 29.61939 | 14360 ft | 316 kts | 302° |
| 2026-05-05 16:28 | 40.87139 | 29.59219 | 13626 ft | 317 kts | 284° |
| 2026-05-05 16:28 | 40.87452 | 29.56377 | 12870 ft | 315 kts | 281° |
| 2026-05-05 16:29 | 40.87746 | 29.53544 | 12128 ft | 311 kts | 282° |
| 2026-05-05 16:29 | 40.88403 | 29.50921 | 11436 ft | 299 kts | 307° |
| 2026-05-05 16:29 | 40.89908 | 29.49237 | 11083 ft | 276 kts | 339° |
| 2026-05-05 16:29 | 40.91684 | 29.48524 | 11011 ft | 255 kts | 346° |
| 2026-05-05 16:30 | 40.93376 | 29.47917 | 10998 ft | 253 kts | 346° |
| 2026-05-05 16:30 | 40.95069 | 29.47295 | 11000 ft | 252 kts | 345° |
| 2026-05-05 16:30 | 40.96680 | 29.46476 | 10956 ft | 252 kts | 331° |
| 2026-05-05 16:30 | 40.98004 | 29.44920 | 10541 ft | 261 kts | 309° |
| 2026-05-05 16:31 | 40.98725 | 29.42695 | 10064 ft | 270 kts | 283° |
| 2026-05-05 16:31 | 40.98593 | 29.40198 | 9555 ft | 278 kts | 261° |
| 2026-05-05 16:31 | 40.98117 | 29.37705 | 9045 ft | 280 kts | 260° |
| 2026-05-05 16:31 | 40.97652 | 29.35224 | 8548 ft | 282 kts | 260° |
| 2026-05-05 16:32 | 40.97180 | 29.32708 | 7990 ft | 278 kts | 259° |
| 2026-05-05 16:32 | 40.96724 | 29.30291 | 7457 ft | 273 kts | 259° |
| 2026-05-05 16:32 | 40.96267 | 29.27860 | 6908 ft | 269 kts | 259° |
| 2026-05-05 16:32 | 40.95820 | 29.25492 | 6361 ft | 265 kts | 259° |
| 2026-05-05 16:33 | 40.95380 | 29.23162 | 5858 ft | 263 kts | 259° |
| 2026-05-05 16:33 | 40.94936 | 29.20806 | 5306 ft | 267 kts | 259° |
| 2026-05-05 16:33 | 40.94490 | 29.18451 | 5030 ft | 258 kts | 259° |
| 2026-05-05 16:33 | 40.94065 | 29.16223 | 4998 ft | 245 kts | 259° |
| 2026-05-05 16:34 | 40.93653 | 29.14057 | 4846 ft | 241 kts | 259° |
| 2026-05-05 16:34 | 40.93245 | 29.11890 | 4366 ft | 249 kts | 259° |
| 2026-05-05 16:34 | 40.92823 | 29.09669 | 4041 ft | 244 kts | 259° |
| 2026-05-05 16:34 | 40.92421 | 29.07567 | 3993 ft | 231 kts | 259° |
| 2026-05-05 16:35 | 40.92028 | 29.05504 | 3989 ft | 234 kts | 259° |
| 2026-05-05 16:35 | 40.91628 | 29.03403 | 3987 ft | 235 kts | 259° |
| 2026-05-05 16:35 | 40.91248 | 29.01325 | 3986 ft | 234 kts | 264° |
| 2026-05-05 16:35 | 40.91272 | 28.99190 | 3981 ft | 230 kts | 281° |
| 2026-05-05 16:36 | 40.91472 | 28.97095 | 3984 ft | 230 kts | 281° |
| 2026-05-05 16:36 | 40.91659 | 28.95015 | 3984 ft | 230 kts | 281° |
| 2026-05-05 16:36 | 40.91845 | 28.92931 | 3987 ft | 228 kts | 281° |
| 2026-05-05 16:36 | 40.92028 | 28.90865 | 3992 ft | 223 kts | 281° |
| 2026-05-05 16:37 | 40.92207 | 28.88837 | 3987 ft | 221 kts | 281° |
| 2026-05-05 16:37 | 40.92384 | 28.86832 | 3986 ft | 221 kts | 281° |
| 2026-05-05 16:37 | 40.92429 | 28.84795 | 3982 ft | 225 kts | 262° |
| 2026-05-05 16:37 | 40.91748 | 28.82934 | 3986 ft | 231 kts | 236° |
| 2026-05-05 16:38 | 40.90881 | 28.81148 | 3982 ft | 228 kts | 256° |
| 2026-05-05 16:38 | 40.90850 | 28.79163 | 3980 ft | 215 kts | 294° |
| 2026-05-05 16:38 | 40.91721 | 28.77642 | 3988 ft | 208 kts | 326° |
| 2026-05-05 16:38 | 40.93012 | 28.76782 | 3988 ft | 207 kts | 345° |
| 2026-05-05 16:39 | 40.94388 | 28.76465 | 3990 ft | 197 kts | 356° |
| 2026-05-05 16:39 | 40.95737 | 28.76363 | 3994 ft | 192 kts | 359° |
| 2026-05-05 16:39 | 40.97086 | 28.76310 | 3986 ft | 191 kts | 359° |
| 2026-05-05 16:39 | 40.98409 | 28.76276 | 3985 ft | 190 kts | 359° |
| 2026-05-05 16:40 | 40.99727 | 28.76244 | 3986 ft | 190 kts | 359° |
| 2026-05-05 16:40 | 41.01044 | 28.76217 | 3984 ft | 190 kts | 359° |
| 2026-05-05 16:40 | 41.02373 | 28.76187 | 3993 ft | 188 kts | 360° |
| 2026-05-05 16:40 | 41.03682 | 28.76160 | 3994 ft | 188 kts | 0° |
| 2026-05-05 16:41 | 41.04987 | 28.76131 | 3989 ft | 189 kts | 360° |
| 2026-05-05 16:41 | 41.06317 | 28.76103 | 3986 ft | 190 kts | 360° |
| 2026-05-05 16:41 | 41.07629 | 28.76076 | 3903 ft | 192 kts | 360° |
| 2026-05-05 16:41 | 41.08942 | 28.76047 | 3661 ft | 182 kts | 360° |
| 2026-05-05 16:42 | 41.10157 | 28.76020 | 3457 ft | 167 kts | 0° |
| 2026-05-05 16:42 | 41.11261 | 28.75996 | 3249 ft | 154 kts | 0° |
| 2026-05-05 16:42 | 41.12303 | 28.75973 | 3041 ft | 146 kts | 0° |
| 2026-05-05 16:42 | 41.13321 | 28.75951 | 2843 ft | 145 kts | 0° |
| 2026-05-05 16:43 | 41.14330 | 28.75930 | 2657 ft | 146 kts | 1° |
| 2026-05-05 16:43 | 41.15345 | 28.75909 | 2460 ft | 146 kts | 0° |
| 2026-05-05 16:43 | 41.16372 | 28.75887 | 2275 ft | 146 kts | 1° |
| 2026-05-05 16:43 | 41.17395 | 28.75864 | 2073 ft | 148 kts | 1° |
| 2026-05-05 16:44 | 41.18414 | 28.75842 | 1863 ft | 144 kts | 1° |
| 2026-05-05 16:44 | 41.19374 | 28.75820 | 1691 ft | 131 kts | 1° |
| 2026-05-05 16:44 | 41.20268 | 28.75799 | 1544 ft | 128 kts | 1° |
| 2026-05-05 16:44 | 41.21159 | 28.75782 | 1357 ft | 127 kts | 1° |
| 2026-05-05 16:45 | 41.21938 | 28.75768 | 1214 ft | 125 kts | 1° |
| 2026-05-05 16:45 | 41.22809 | 28.75750 | 1040 ft | 124 kts | 360° |
| 2026-05-05 16:45 | 41.23666 | 28.75723 | 870 ft | 124 kts | 0° |
| 2026-05-05 16:45 | 41.24535 | 28.75697 | 731 ft | 123 kts | 0° |
| 2026-05-05 16:46 | 41.25390 | 28.75684 | 563 ft | 124 kts | 0° |
| 2026-05-05 16:46 | 41.26257 | 28.75664 | 378 ft | 124 kts | 1° |
| 2026-05-05 16:46 | 41.27047 | 28.75651 | 333 ft | 95 kts | 359° |
| 2026-05-05 16:46 | 41.27520 | 28.75641 | 333 ft | 48 kts | 359° |
| 2026-05-05 16:47 | 41.27623 | 28.75639 | 333 ft | 42 kts | 360° |
| 2026-05-05 16:47 | 41.27868 | 28.75631 | 333 ft | 26 kts | 356° |
| 2026-05-05 16:47 | 41.27921 | 28.75622 | 333 ft | 15 kts | 348° |
| 2026-05-05 16:47 | 41.27964 | 28.75607 | 333 ft | 12 kts | 342° |
| 2026-05-05 16:48 | 41.28023 | 28.75571 | 333 ft | 15 kts | 331° |
| 2026-05-05 16:48 | 41.28109 | 28.75493 | 333 ft | 11 kts | 317° |
| 2026-05-05 16:48 | 41.28135 | 28.75433 | 333 ft | 9 kts | 266° |
| 2026-05-05 16:48 | 41.28081 | 28.75388 | 333 ft | 11 kts | 183° |
| 2026-05-05 16:49 | 41.28001 | 28.75386 | 333 ft | 11 kts | 180° |
| 2026-05-05 16:49 | 41.27909 | 28.75388 | 333 ft | 15 kts | 180° |
| 2026-05-05 16:49 | 41.27841 | 28.75388 | 333 ft | 0 kts | 180° |
| 2026-05-05 16:49 | 41.27836 | 28.75388 | 333 ft | 2 kts | 178° |
| 2026-05-05 16:50 | 41.27802 | 28.75389 | 333 ft | 7 kts | 179° |
| 2026-05-05 16:50 | 41.27739 | 28.75390 | 333 ft | 11 kts | 179° |
| 2026-05-05 16:50 | 41.27649 | 28.75392 | 333 ft | 14 kts | 180° |
| 2026-05-05 16:50 | 41.27533 | 28.75395 | 333 ft | 18 kts | 179° |
| 2026-05-05 16:51 | 41.27394 | 28.75395 | 333 ft | 16 kts | 180° |
| 2026-05-05 16:51 | 41.27280 | 28.75398 | 333 ft | 14 kts | 178° |
| 2026-05-05 16:51 | 41.27188 | 28.75398 | 333 ft | 12 kts | 180° |
| 2026-05-05 16:51 | 41.27113 | 28.75398 | 333 ft | 12 kts | 180° |
| 2026-05-05 16:52 | 41.27011 | 28.75401 | 333 ft | 16 kts | 178° |
| 2026-05-05 16:52 | 41.26886 | 28.75406 | 333 ft | 18 kts | 178° |
| 2026-05-05 16:52 | 41.26773 | 28.75411 | 333 ft | 17 kts | 178° |
| 2026-05-05 16:52 | 41.26642 | 28.75418 | 333 ft | 20 kts | 178° |
| 2026-05-05 16:53 | 41.26498 | 28.75423 | 333 ft | 20 kts | 177° |
| 2026-05-05 16:53 | 41.26376 | 28.75427 | 333 ft | 17 kts | 179° |
| 2026-05-05 16:53 | 41.26273 | 28.75430 | 333 ft | 14 kts | 176° |
| 2026-05-05 16:53 | 41.26172 | 28.75440 | 333 ft | 14 kts | 175° |
| 2026-05-05 16:54 | 41.26060 | 28.75449 | 333 ft | 16 kts | 178° |
| 2026-05-05 16:54 | 41.25970 | 28.75453 | 333 ft | 14 kts | 179° |
| 2026-05-05 16:54 | 41.25859 | 28.75458 | 333 ft | 17 kts | 177° |
| 2026-05-05 16:54 | 41.25741 | 28.75469 | 333 ft | 17 kts | 177° |
| 2026-05-05 16:55 | 41.25616 | 28.75472 | 333 ft | 18 kts | 180° |
| 2026-05-05 16:55 | 41.25508 | 28.75473 | 333 ft | 15 kts | 179° |
| 2026-05-05 16:55 | 41.25396 | 28.75472 | 333 ft | 13 kts | 182° |
| 2026-05-05 16:55 | 41.25301 | 28.75471 | 333 ft | 13 kts | 180° |
| 2026-05-05 16:56 | 41.25218 | 28.75471 | 333 ft | 10 kts | 181° |
| 2026-05-05 16:56 | 41.25169 | 28.75430 | 333 ft | 8 kts | 248° |
| 2026-05-05 16:56 | 41.25170 | 28.75378 | 333 ft | 1 kts | 285° |
| 2026-05-05 16:56 | 41.25172 | 28.75361 | 333 ft | 1 kts | 275° |
| 2026-05-05 16:57 | 41.25172 | 28.75339 | 333 ft | 2 kts | 269° |
| 2026-05-05 16:57 | 41.25172 | 28.75326 | 333 ft | 0 kts | 268° |